sensor_id;sensor_type;location;lat;lon;timestamp;P1;durP1;ratioP1;P2;durP2;ratioP2
1701;SDS011;848;48.354;10.064;2024-02-15T00:00:15;4.85;;;2.38;;
1701;SDS011;848;48.354;10.064;2024-02-15T00:02:42;3.40;;;2.50;;
1701;SDS011;848;48.354;10.064;2024-02-15T00:05:11;4.20;;;3.05;;
1701;SDS011;848;48.354;10.064;2024-02-15T00:07:39;3.42;;;3.13;;
1701;SDS011;848;48.354;10.064;2024-02-15T00:10:07;4.75;;;2.65;;
1701;SDS011;848;48.354;10.064;2024-02-15T00:12:34;3.47;;;3.17;;
1701;SDS011;848;48.354;10.064;2024-02-15T00:15:02;5.20;;;2.70;;
1701;SDS011;848;48.354;10.064;2024-02-15T00:17:29;3.13;;;2.80;;
1701;SDS011;848;48.354;10.064;2024-02-15T00:19:58;4.20;;;3.28;;
1701;SDS011;848;48.354;10.064;2024-02-15T00:22:27;3.88;;;2.75;;
1701;SDS011;848;48.354;10.064;2024-02-15T00:24:54;2.55;;;2.35;;
1701;SDS011;848;48.354;10.064;2024-02-15T00:27:21;6.22;;;2.35;;
1701;SDS011;848;48.354;10.064;2024-02-15T00:29:48;2.38;;;2.20;;
1701;SDS011;848;48.354;10.064;2024-02-15T00:32:15;2.70;;;2.50;;
1701;SDS011;848;48.354;10.064;2024-02-15T00:34:42;3.78;;;2.55;;
1701;SDS011;848;48.354;10.064;2024-02-15T00:37:09;3.95;;;2.80;;
1701;SDS011;848;48.354;10.064;2024-02-15T00:39:36;4.00;;;2.90;;
1701;SDS011;848;48.354;10.064;2024-02-15T00:42:03;2.70;;;2.10;;
1701;SDS011;848;48.354;10.064;2024-02-15T00:44:34;3.40;;;2.38;;
1701;SDS011;848;48.354;10.064;2024-02-15T00:47:00;3.85;;;2.42;;
1701;SDS011;848;48.354;10.064;2024-02-15T00:49:27;4.00;;;2.30;;
1701;SDS011;848;48.354;10.064;2024-02-15T00:51:54;4.50;;;2.45;;
1701;SDS011;848;48.354;10.064;2024-02-15T00:54:21;2.22;;;2.13;;
1701;SDS011;848;48.354;10.064;2024-02-15T00:56:50;3.53;;;2.22;;
1701;SDS011;848;48.354;10.064;2024-02-15T00:59:17;1.95;;;1.85;;
1701;SDS011;848;48.354;10.064;2024-02-15T01:01:44;4.22;;;2.35;;
1701;SDS011;848;48.354;10.064;2024-02-15T01:04:13;2.47;;;1.95;;
1701;SDS011;848;48.354;10.064;2024-02-15T01:06:40;3.05;;;1.70;;
1701;SDS011;848;48.354;10.064;2024-02-15T01:09:07;2.20;;;1.95;;
1701;SDS011;848;48.354;10.064;2024-02-15T01:11:34;2.58;;;2.38;;
1701;SDS011;848;48.354;10.064;2024-02-15T01:14:03;2.20;;;2.00;;
1701;SDS011;848;48.354;10.064;2024-02-15T01:16:34;5.63;;;2.25;;
1701;SDS011;848;48.354;10.064;2024-02-15T01:19:01;3.40;;;1.75;;
1701;SDS011;848;48.354;10.064;2024-02-15T01:21:28;2.03;;;1.92;;
1701;SDS011;848;48.354;10.064;2024-02-15T01:23:54;1.77;;;1.67;;
1701;SDS011;848;48.354;10.064;2024-02-15T01:26:21;2.22;;;2.03;;
1701;SDS011;848;48.354;10.064;2024-02-15T01:28:48;2.10;;;1.40;;
1701;SDS011;848;48.354;10.064;2024-02-15T01:31:17;2.80;;;2.10;;
1701;SDS011;848;48.354;10.064;2024-02-15T01:33:44;2.75;;;2.17;;
1701;SDS011;848;48.354;10.064;2024-02-15T01:36:13;2.17;;;2.08;;
1701;SDS011;848;48.354;10.064;2024-02-15T01:38:41;2.55;;;2.35;;
1701;SDS011;848;48.354;10.064;2024-02-15T01:41:08;2.45;;;2.25;;
1701;SDS011;848;48.354;10.064;2024-02-15T01:43:35;3.55;;;2.45;;
1701;SDS011;848;48.354;10.064;2024-02-15T01:46:02;2.22;;;2.00;;
1701;SDS011;848;48.354;10.064;2024-02-15T01:48:36;2.30;;;1.90;;
1701;SDS011;848;48.354;10.064;2024-02-15T01:51:06;2.50;;;2.13;;
1701;SDS011;848;48.354;10.064;2024-02-15T01:53:37;2.05;;;1.92;;
1701;SDS011;848;48.354;10.064;2024-02-15T01:56:06;2.80;;;1.88;;
1701;SDS011;848;48.354;10.064;2024-02-15T01:58:33;2.65;;;1.95;;
1701;SDS011;848;48.354;10.064;2024-02-15T02:01:01;2.47;;;2.28;;
1701;SDS011;848;48.354;10.064;2024-02-15T02:03:29;2.83;;;1.92;;
1701;SDS011;848;48.354;10.064;2024-02-15T02:05:57;3.47;;;2.22;;
1701;SDS011;848;48.354;10.064;2024-02-15T02:08:24;3.08;;;2.78;;
1701;SDS011;848;48.354;10.064;2024-02-15T02:10:52;2.30;;;1.70;;
1701;SDS011;848;48.354;10.064;2024-02-15T02:13:19;2.67;;;2.13;;
1701;SDS011;848;48.354;10.064;2024-02-15T02:15:46;3.05;;;1.75;;
1701;SDS011;848;48.354;10.064;2024-02-15T02:18:13;1.95;;;1.83;;
1701;SDS011;848;48.354;10.064;2024-02-15T02:20:39;2.17;;;2.05;;
1701;SDS011;848;48.354;10.064;2024-02-15T02:23:09;2.10;;;1.90;;
1701;SDS011;848;48.354;10.064;2024-02-15T02:25:42;1.70;;;1.60;;
1701;SDS011;848;48.354;10.064;2024-02-15T02:28:11;2.33;;;1.83;;
1701;SDS011;848;48.354;10.064;2024-02-15T02:30:39;2.25;;;2.10;;
1701;SDS011;848;48.354;10.064;2024-02-15T02:33:10;2.70;;;2.38;;
1701;SDS011;848;48.354;10.064;2024-02-15T02:35:43;2.67;;;2.47;;
1701;SDS011;848;48.354;10.064;2024-02-15T02:38:11;2.85;;;2.25;;
1701;SDS011;848;48.354;10.064;2024-02-15T02:40:39;2.25;;;1.55;;
1701;SDS011;848;48.354;10.064;2024-02-15T02:43:07;5.28;;;2.88;;
1701;SDS011;848;48.354;10.064;2024-02-15T02:45:34;3.00;;;1.85;;
1701;SDS011;848;48.354;10.064;2024-02-15T02:48:01;2.08;;;1.98;;
1701;SDS011;848;48.354;10.064;2024-02-15T02:50:28;2.20;;;2.00;;
1701;SDS011;848;48.354;10.064;2024-02-15T02:52:55;4.53;;;1.70;;
1701;SDS011;848;48.354;10.064;2024-02-15T02:55:22;2.70;;;2.50;;
1701;SDS011;848;48.354;10.064;2024-02-15T02:57:52;2.28;;;2.05;;
1701;SDS011;848;48.354;10.064;2024-02-15T03:00:21;3.13;;;2.25;;
1701;SDS011;848;48.354;10.064;2024-02-15T03:02:48;2.13;;;1.90;;
1701;SDS011;848;48.354;10.064;2024-02-15T03:05:15;3.05;;;2.65;;
1701;SDS011;848;48.354;10.064;2024-02-15T03:07:45;2.10;;;2.00;;
1701;SDS011;848;48.354;10.064;2024-02-15T03:10:12;2.85;;;2.03;;
1701;SDS011;848;48.354;10.064;2024-02-15T03:12:40;4.20;;;2.33;;
1701;SDS011;848;48.354;10.064;2024-02-15T03:15:08;1.92;;;1.70;;
1701;SDS011;848;48.354;10.064;2024-02-15T03:17:38;2.63;;;1.70;;
1701;SDS011;848;48.354;10.064;2024-02-15T03:20:06;3.47;;;2.20;;
1701;SDS011;848;48.354;10.064;2024-02-15T03:22:37;5.63;;;2.25;;
1701;SDS011;848;48.354;10.064;2024-02-15T03:25:04;2.90;;;2.30;;
1701;SDS011;848;48.354;10.064;2024-02-15T03:27:33;4.22;;;1.88;;
1701;SDS011;848;48.354;10.064;2024-02-15T03:30:00;3.95;;;2.40;;
1701;SDS011;848;48.354;10.064;2024-02-15T03:32:29;5.72;;;2.38;;
1701;SDS011;848;48.354;10.064;2024-02-15T03:34:57;2.17;;;1.95;;
1701;SDS011;848;48.354;10.064;2024-02-15T03:37:26;3.55;;;2.38;;
1701;SDS011;848;48.354;10.064;2024-02-15T03:39:53;2.30;;;1.92;;
1701;SDS011;848;48.354;10.064;2024-02-15T03:42:20;2.72;;;2.45;;
1701;SDS011;848;48.354;10.064;2024-02-15T03:44:46;3.40;;;2.42;;
1701;SDS011;848;48.354;10.064;2024-02-15T03:47:13;2.50;;;2.22;;
1701;SDS011;848;48.354;10.064;2024-02-15T03:49:40;3.63;;;3.00;;
1701;SDS011;848;48.354;10.064;2024-02-15T03:52:09;3.55;;;3.10;;
1701;SDS011;848;48.354;10.064;2024-02-15T03:54:36;2.40;;;2.20;;
1701;SDS011;848;48.354;10.064;2024-02-15T03:57:03;4.00;;;3.13;;
1701;SDS011;848;48.354;10.064;2024-02-15T03:59:31;3.60;;;3.03;;
1701;SDS011;848;48.354;10.064;2024-02-15T04:02:00;3.90;;;2.65;;
1701;SDS011;848;48.354;10.064;2024-02-15T04:04:28;3.35;;;2.85;;
1701;SDS011;848;48.354;10.064;2024-02-15T04:06:55;2.00;;;1.90;;
1701;SDS011;848;48.354;10.064;2024-02-15T04:09:24;3.40;;;3.10;;
1701;SDS011;848;48.354;10.064;2024-02-15T04:11:51;3.50;;;3.20;;
1701;SDS011;848;48.354;10.064;2024-02-15T04:14:18;4.10;;;2.75;;
1701;SDS011;848;48.354;10.064;2024-02-15T04:16:45;3.10;;;2.80;;
1701;SDS011;848;48.354;10.064;2024-02-15T04:19:12;3.20;;;2.88;;
1701;SDS011;848;48.354;10.064;2024-02-15T04:21:39;4.03;;;2.47;;
1701;SDS011;848;48.354;10.064;2024-02-15T04:24:09;3.33;;;2.45;;
1701;SDS011;848;48.354;10.064;2024-02-15T04:26:37;2.47;;;2.30;;
1701;SDS011;848;48.354;10.064;2024-02-15T04:29:04;3.30;;;2.90;;
1701;SDS011;848;48.354;10.064;2024-02-15T04:31:32;4.53;;;2.75;;
1701;SDS011;848;48.354;10.064;2024-02-15T04:34:02;3.33;;;3.03;;
1701;SDS011;848;48.354;10.064;2024-02-15T04:36:29;2.83;;;2.30;;
1701;SDS011;848;48.354;10.064;2024-02-15T04:38:59;3.30;;;2.97;;
1701;SDS011;848;48.354;10.064;2024-02-15T04:41:27;3.13;;;2.42;;
1701;SDS011;848;48.354;10.064;2024-02-15T04:43:56;2.45;;;2.17;;
1701;SDS011;848;48.354;10.064;2024-02-15T04:46:23;3.75;;;2.83;;
1701;SDS011;848;48.354;10.064;2024-02-15T04:48:50;3.53;;;2.75;;
1701;SDS011;848;48.354;10.064;2024-02-15T04:51:17;4.85;;;3.20;;
1701;SDS011;848;48.354;10.064;2024-02-15T04:53:44;2.90;;;2.60;;
1701;SDS011;848;48.354;10.064;2024-02-15T04:56:13;2.83;;;2.60;;
1701;SDS011;848;48.354;10.064;2024-02-15T04:58:41;2.47;;;2.20;;
1701;SDS011;848;48.354;10.064;2024-02-15T05:01:13;3.85;;;2.88;;
1701;SDS011;848;48.354;10.064;2024-02-15T05:03:41;3.17;;;2.80;;
1701;SDS011;848;48.354;10.064;2024-02-15T05:06:09;2.70;;;2.50;;
1701;SDS011;848;48.354;10.064;2024-02-15T05:08:38;4.32;;;2.30;;
1701;SDS011;848;48.354;10.064;2024-02-15T05:11:07;3.35;;;2.65;;
1701;SDS011;848;48.354;10.064;2024-02-15T05:13:38;3.33;;;2.88;;
1701;SDS011;848;48.354;10.064;2024-02-15T05:16:05;2.67;;;2.40;;
1701;SDS011;848;48.354;10.064;2024-02-15T05:18:33;3.15;;;2.63;;
1701;SDS011;848;48.354;10.064;2024-02-15T05:21:01;3.00;;;2.33;;
1701;SDS011;848;48.354;10.064;2024-02-15T05:23:28;7.18;;;2.88;;
1701;SDS011;848;48.354;10.064;2024-02-15T05:25:55;6.18;;;3.08;;
1701;SDS011;848;48.354;10.064;2024-02-15T05:28:23;2.80;;;2.50;;
1701;SDS011;848;48.354;10.064;2024-02-15T05:31:07;6.85;;;3.28;;
1701;SDS011;848;48.354;10.064;2024-02-15T05:33:37;4.30;;;2.78;;
1701;SDS011;848;48.354;10.064;2024-02-15T05:36:07;3.08;;;2.70;;
1701;SDS011;848;48.354;10.064;2024-02-15T05:38:35;3.35;;;2.75;;
1701;SDS011;848;48.354;10.064;2024-02-15T05:41:02;2.33;;;2.13;;
1701;SDS011;848;48.354;10.064;2024-02-15T05:43:29;2.97;;;2.78;;
1701;SDS011;848;48.354;10.064;2024-02-15T05:45:57;4.50;;;3.50;;
1701;SDS011;848;48.354;10.064;2024-02-15T05:48:25;2.40;;;2.20;;
1701;SDS011;848;48.354;10.064;2024-02-15T05:50:54;3.55;;;2.50;;
1701;SDS011;848;48.354;10.064;2024-02-15T05:53:22;3.83;;;2.83;;
1701;SDS011;848;48.354;10.064;2024-02-15T05:55:49;4.20;;;2.90;;
1701;SDS011;848;48.354;10.064;2024-02-15T05:58:16;2.67;;;2.00;;
1701;SDS011;848;48.354;10.064;2024-02-15T06:00:43;4.15;;;3.00;;
1701;SDS011;848;48.354;10.064;2024-02-15T06:03:14;3.45;;;3.05;;
1701;SDS011;848;48.354;10.064;2024-02-15T06:05:41;3.22;;;3.00;;
1701;SDS011;848;48.354;10.064;2024-02-15T06:08:10;4.65;;;3.05;;
1701;SDS011;848;48.354;10.064;2024-02-15T06:10:38;7.55;;;3.10;;
1701;SDS011;848;48.354;10.064;2024-02-15T06:13:05;3.70;;;2.70;;
1701;SDS011;848;48.354;10.064;2024-02-15T06:15:33;5.55;;;2.88;;
1701;SDS011;848;48.354;10.064;2024-02-15T06:18:01;3.55;;;3.05;;
1701;SDS011;848;48.354;10.064;2024-02-15T06:20:29;4.53;;;2.97;;
1701;SDS011;848;48.354;10.064;2024-02-15T06:22:56;3.50;;;2.60;;
1701;SDS011;848;48.354;10.064;2024-02-15T06:25:25;5.22;;;2.38;;
1701;SDS011;848;48.354;10.064;2024-02-15T06:27:52;5.28;;;3.40;;
1701;SDS011;848;48.354;10.064;2024-02-15T06:30:24;3.20;;;2.75;;
1701;SDS011;848;48.354;10.064;2024-02-15T06:33:08;4.10;;;3.03;;
1701;SDS011;848;48.354;10.064;2024-02-15T06:35:53;3.00;;;1.80;;
1701;SDS011;848;48.354;10.064;2024-02-15T06:38:37;2.20;;;2.00;;
1701;SDS011;848;48.354;10.064;2024-02-15T06:41:22;7.30;;;3.13;;
1701;SDS011;848;48.354;10.064;2024-02-15T06:43:50;3.60;;;2.83;;
1701;SDS011;848;48.354;10.064;2024-02-15T06:46:17;2.53;;;2.28;;
1701;SDS011;848;48.354;10.064;2024-02-15T06:48:44;3.28;;;2.90;;
1701;SDS011;848;48.354;10.064;2024-02-15T06:51:12;5.65;;;2.90;;
1701;SDS011;848;48.354;10.064;2024-02-15T06:53:40;2.53;;;1.95;;
1701;SDS011;848;48.354;10.064;2024-02-15T06:56:08;2.85;;;2.15;;
1701;SDS011;848;48.354;10.064;2024-02-15T06:58:36;4.78;;;3.83;;
1701;SDS011;848;48.354;10.064;2024-02-15T07:01:05;3.70;;;2.65;;
1701;SDS011;848;48.354;10.064;2024-02-15T07:03:32;5.03;;;3.03;;
1701;SDS011;848;48.354;10.064;2024-02-15T07:05:59;4.45;;;3.30;;
1701;SDS011;848;48.354;10.064;2024-02-15T07:08:27;4.15;;;2.42;;
1701;SDS011;848;48.354;10.064;2024-02-15T07:10:54;3.22;;;2.92;;
1701;SDS011;848;48.354;10.064;2024-02-15T07:13:21;4.38;;;2.60;;
1701;SDS011;848;48.354;10.064;2024-02-15T07:15:49;5.55;;;3.38;;
1701;SDS011;848;48.354;10.064;2024-02-15T07:18:17;7.72;;;4.32;;
1701;SDS011;848;48.354;10.064;2024-02-15T07:20:45;8.20;;;4.45;;
1701;SDS011;848;48.354;10.064;2024-02-15T07:23:12;5.30;;;3.47;;
1701;SDS011;848;48.354;10.064;2024-02-15T07:25:39;8.48;;;3.70;;
1701;SDS011;848;48.354;10.064;2024-02-15T07:28:06;9.35;;;3.33;;
1701;SDS011;848;48.354;10.064;2024-02-15T07:30:34;3.88;;;3.15;;
1701;SDS011;848;48.354;10.064;2024-02-15T07:33:03;4.65;;;3.30;;
1701;SDS011;848;48.354;10.064;2024-02-15T07:35:31;3.70;;;2.50;;
1701;SDS011;848;48.354;10.064;2024-02-15T07:38:00;3.00;;;2.65;;
1701;SDS011;848;48.354;10.064;2024-02-15T07:40:27;4.47;;;3.72;;
1701;SDS011;848;48.354;10.064;2024-02-15T07:42:55;3.53;;;3.13;;
1701;SDS011;848;48.354;10.064;2024-02-15T07:45:23;4.82;;;3.13;;
1701;SDS011;848;48.354;10.064;2024-02-15T07:47:50;4.53;;;3.25;;
1701;SDS011;848;48.354;10.064;2024-02-15T07:50:18;3.17;;;2.85;;
1701;SDS011;848;48.354;10.064;2024-02-15T07:52:48;4.90;;;3.65;;
1701;SDS011;848;48.354;10.064;2024-02-15T07:55:16;5.72;;;3.40;;
1701;SDS011;848;48.354;10.064;2024-02-15T07:57:43;3.90;;;2.92;;
1701;SDS011;848;48.354;10.064;2024-02-15T08:00:11;3.45;;;3.15;;
1701;SDS011;848;48.354;10.064;2024-02-15T08:02:41;5.90;;;3.83;;
1701;SDS011;848;48.354;10.064;2024-02-15T08:05:09;8.10;;;3.72;;
1701;SDS011;848;48.354;10.064;2024-02-15T08:07:40;5.55;;;4.30;;
1701;SDS011;848;48.354;10.064;2024-02-15T08:10:09;3.67;;;3.03;;
1701;SDS011;848;48.354;10.064;2024-02-15T08:12:38;3.20;;;2.90;;
1701;SDS011;848;48.354;10.064;2024-02-15T08:15:06;5.80;;;3.88;;
1701;SDS011;848;48.354;10.064;2024-02-15T08:17:37;5.55;;;3.25;;
1701;SDS011;848;48.354;10.064;2024-02-15T08:20:07;5.85;;;3.25;;
1701;SDS011;848;48.354;10.064;2024-02-15T08:22:36;7.38;;;5.10;;
1701;SDS011;848;48.354;10.064;2024-02-15T08:25:06;18.55;;;9.60;;
1701;SDS011;848;48.354;10.064;2024-02-15T08:27:35;29.10;;;10.82;;
1701;SDS011;848;48.354;10.064;2024-02-15T08:30:08;12.93;;;7.70;;
1701;SDS011;848;48.354;10.064;2024-02-15T08:32:37;7.00;;;5.05;;
1701;SDS011;848;48.354;10.064;2024-02-15T08:35:04;7.53;;;6.00;;
1701;SDS011;848;48.354;10.064;2024-02-15T08:37:33;5.07;;;3.70;;
1701;SDS011;848;48.354;10.064;2024-02-15T08:40:00;4.93;;;4.07;;
1701;SDS011;848;48.354;10.064;2024-02-15T08:42:29;9.85;;;4.57;;
1701;SDS011;848;48.354;10.064;2024-02-15T08:44:56;6.45;;;4.40;;
1701;SDS011;848;48.354;10.064;2024-02-15T08:47:24;6.50;;;4.60;;
1701;SDS011;848;48.354;10.064;2024-02-15T08:49:52;3.85;;;3.35;;
1701;SDS011;848;48.354;10.064;2024-02-15T08:52:18;3.85;;;3.50;;
1701;SDS011;848;48.354;10.064;2024-02-15T08:54:45;10.98;;;4.40;;
1701;SDS011;848;48.354;10.064;2024-02-15T08:57:12;9.13;;;6.38;;
1701;SDS011;848;48.354;10.064;2024-02-15T08:59:40;7.47;;;4.60;;
1701;SDS011;848;48.354;10.064;2024-02-15T09:02:07;7.30;;;4.50;;
1701;SDS011;848;48.354;10.064;2024-02-15T09:04:34;6.53;;;4.07;;
1701;SDS011;848;48.354;10.064;2024-02-15T09:07:01;8.60;;;4.75;;
1701;SDS011;848;48.354;10.064;2024-02-15T09:09:29;4.82;;;4.28;;
1701;SDS011;848;48.354;10.064;2024-02-15T09:11:56;7.05;;;4.85;;
1701;SDS011;848;48.354;10.064;2024-02-15T09:14:23;6.40;;;4.28;;
1701;SDS011;848;48.354;10.064;2024-02-15T09:16:52;4.70;;;3.53;;
1701;SDS011;848;48.354;10.064;2024-02-15T09:19:18;11.02;;;5.45;;
1701;SDS011;848;48.354;10.064;2024-02-15T09:21:45;6.50;;;3.92;;
1701;SDS011;848;48.354;10.064;2024-02-15T09:24:12;11.15;;;5.03;;
1701;SDS011;848;48.354;10.064;2024-02-15T09:26:41;6.40;;;3.80;;
1701;SDS011;848;48.354;10.064;2024-02-15T09:29:09;5.97;;;3.85;;
1701;SDS011;848;48.354;10.064;2024-02-15T09:31:37;7.63;;;3.92;;
1701;SDS011;848;48.354;10.064;2024-02-15T09:34:06;13.25;;;8.43;;
1701;SDS011;848;48.354;10.064;2024-02-15T09:36:33;3.72;;;3.42;;
1701;SDS011;848;48.354;10.064;2024-02-15T09:39:03;4.28;;;3.15;;
1701;SDS011;848;48.354;10.064;2024-02-15T09:41:30;4.30;;;3.10;;
1701;SDS011;848;48.354;10.064;2024-02-15T09:43:57;6.28;;;3.42;;
1701;SDS011;848;48.354;10.064;2024-02-15T09:46:24;6.35;;;4.63;;
1701;SDS011;848;48.354;10.064;2024-02-15T09:48:51;4.20;;;3.25;;
1701;SDS011;848;48.354;10.064;2024-02-15T09:51:26;7.68;;;3.05;;
1701;SDS011;848;48.354;10.064;2024-02-15T09:53:56;6.00;;;4.05;;
1701;SDS011;848;48.354;10.064;2024-02-15T09:56:23;3.95;;;3.50;;
1701;SDS011;848;48.354;10.064;2024-02-15T09:58:53;4.47;;;2.90;;
1701;SDS011;848;48.354;10.064;2024-02-15T10:01:22;5.53;;;3.20;;
1701;SDS011;848;48.354;10.064;2024-02-15T10:03:49;4.28;;;3.15;;
1701;SDS011;848;48.354;10.064;2024-02-15T10:06:17;6.70;;;4.00;;
1701;SDS011;848;48.354;10.064;2024-02-15T10:08:45;5.00;;;3.60;;
1701;SDS011;848;48.354;10.064;2024-02-15T10:11:13;4.47;;;3.10;;
1701;SDS011;848;48.354;10.064;2024-02-15T10:13:41;7.65;;;3.53;;
1701;SDS011;848;48.354;10.064;2024-02-15T10:16:16;5.65;;;3.17;;
1701;SDS011;848;48.354;10.064;2024-02-15T10:18:43;5.78;;;3.35;;
1701;SDS011;848;48.354;10.064;2024-02-15T10:21:23;4.15;;;3.10;;
1701;SDS011;848;48.354;10.064;2024-02-15T10:24:03;3.28;;;2.70;;
1701;SDS011;848;48.354;10.064;2024-02-15T10:26:31;3.15;;;2.58;;
1701;SDS011;848;48.354;10.064;2024-02-15T10:29:06;4.40;;;2.15;;
1701;SDS011;848;48.354;10.064;2024-02-15T10:31:35;3.85;;;2.33;;
1701;SDS011;848;48.354;10.064;2024-02-15T10:34:03;9.80;;;3.55;;
1701;SDS011;848;48.354;10.064;2024-02-15T10:36:32;5.95;;;2.58;;
1701;SDS011;848;48.354;10.064;2024-02-15T10:39:14;5.68;;;2.70;;
1701;SDS011;848;48.354;10.064;2024-02-15T10:41:44;4.07;;;2.92;;
1701;SDS011;848;48.354;10.064;2024-02-15T10:44:16;6.35;;;3.50;;
1701;SDS011;848;48.354;10.064;2024-02-15T10:46:44;4.55;;;2.33;;
1701;SDS011;848;48.354;10.064;2024-02-15T10:49:16;3.63;;;2.28;;
1701;SDS011;848;48.354;10.064;2024-02-15T10:51:43;3.08;;;2.55;;
1701;SDS011;848;48.354;10.064;2024-02-15T10:54:15;8.73;;;2.67;;
1701;SDS011;848;48.354;10.064;2024-02-15T10:56:54;6.32;;;2.67;;
1701;SDS011;848;48.354;10.064;2024-02-15T10:59:31;5.75;;;2.38;;
1701;SDS011;848;48.354;10.064;2024-02-15T11:02:01;4.15;;;1.95;;
1701;SDS011;848;48.354;10.064;2024-02-15T11:04:42;2.47;;;1.88;;
1701;SDS011;848;48.354;10.064;2024-02-15T11:07:10;3.92;;;1.85;;
1701;SDS011;848;48.354;10.064;2024-02-15T11:09:39;3.13;;;2.65;;
1701;SDS011;848;48.354;10.064;2024-02-15T11:12:07;4.22;;;2.45;;
1701;SDS011;848;48.354;10.064;2024-02-15T11:14:36;2.35;;;2.15;;
1701;SDS011;848;48.354;10.064;2024-02-15T11:17:03;2.30;;;1.88;;
1701;SDS011;848;48.354;10.064;2024-02-15T11:19:44;2.65;;;1.42;;
1701;SDS011;848;48.354;10.064;2024-02-15T11:22:12;3.95;;;2.20;;
1701;SDS011;848;48.354;10.064;2024-02-15T11:24:48;3.30;;;1.52;;
1701;SDS011;848;48.354;10.064;2024-02-15T11:27:26;2.08;;;1.70;;
1701;SDS011;848;48.354;10.064;2024-02-15T11:29:54;1.55;;;1.20;;
1701;SDS011;848;48.354;10.064;2024-02-15T11:35:19;2.95;;;1.63;;
1701;SDS011;848;48.354;10.064;2024-02-15T11:37:55;1.30;;;0.98;;
1701;SDS011;848;48.354;10.064;2024-02-15T11:40:28;1.90;;;1.20;;
1701;SDS011;848;48.354;10.064;2024-02-15T11:42:56;2.78;;;1.48;;
1701;SDS011;848;48.354;10.064;2024-02-15T11:45:24;2.75;;;1.15;;
1701;SDS011;848;48.354;10.064;2024-02-15T11:47:57;2.53;;;1.50;;
1701;SDS011;848;48.354;10.064;2024-02-15T11:50:27;1.42;;;1.08;;
1701;SDS011;848;48.354;10.064;2024-02-15T11:53:01;3.08;;;1.48;;
1701;SDS011;848;48.354;10.064;2024-02-15T11:55:32;1.30;;;1.08;;
1701;SDS011;848;48.354;10.064;2024-02-15T11:58:01;1.50;;;1.30;;
1701;SDS011;848;48.354;10.064;2024-02-15T12:00:30;2.58;;;1.40;;
1701;SDS011;848;48.354;10.064;2024-02-15T12:03:15;1.30;;;0.90;;
1701;SDS011;848;48.354;10.064;2024-02-15T12:06:01;2.53;;;1.45;;
1701;SDS011;848;48.354;10.064;2024-02-15T12:08:54;2.80;;;1.30;;
1701;SDS011;848;48.354;10.064;2024-02-15T12:11:40;1.40;;;1.23;;
1701;SDS011;848;48.354;10.064;2024-02-15T12:14:24;4.30;;;1.92;;
1701;SDS011;848;48.354;10.064;2024-02-15T12:17:09;2.35;;;1.27;;
1701;SDS011;848;48.354;10.064;2024-02-15T12:19:56;1.23;;;1.00;;
1701;SDS011;848;48.354;10.064;2024-02-15T12:22:26;1.92;;;1.08;;
1701;SDS011;848;48.354;10.064;2024-02-15T12:24:55;2.25;;;1.20;;
1701;SDS011;848;48.354;10.064;2024-02-15T12:27:24;4.40;;;1.55;;
1701;SDS011;848;48.354;10.064;2024-02-15T12:29:54;1.80;;;1.00;;
1701;SDS011;848;48.354;10.064;2024-02-15T12:32:23;1.65;;;1.10;;
1701;SDS011;848;48.354;10.064;2024-02-15T12:34:50;1.60;;;1.02;;
1701;SDS011;848;48.354;10.064;2024-02-15T12:37:17;1.33;;;0.95;;
1701;SDS011;848;48.354;10.064;2024-02-15T12:39:46;1.50;;;1.15;;
1701;SDS011;848;48.354;10.064;2024-02-15T12:42:14;1.38;;;1.10;;
1701;SDS011;848;48.354;10.064;2024-02-15T12:44:46;2.03;;;1.40;;
1701;SDS011;848;48.354;10.064;2024-02-15T12:47:22;2.20;;;1.55;;
1701;SDS011;848;48.354;10.064;2024-02-15T12:49:50;3.85;;;1.45;;
1701;SDS011;848;48.354;10.064;2024-02-15T12:52:33;2.95;;;1.35;;
1701;SDS011;848;48.354;10.064;2024-02-15T12:55:08;2.28;;;0.90;;
1701;SDS011;848;48.354;10.064;2024-02-15T12:57:42;1.88;;;1.33;;
1701;SDS011;848;48.354;10.064;2024-02-15T13:00:14;3.67;;;1.40;;
1701;SDS011;848;48.354;10.064;2024-02-15T13:02:44;1.63;;;1.08;;
1701;SDS011;848;48.354;10.064;2024-02-15T13:05:14;1.52;;;1.08;;
1701;SDS011;848;48.354;10.064;2024-02-15T13:07:43;3.05;;;1.50;;
1701;SDS011;848;48.354;10.064;2024-02-15T13:10:10;1.35;;;1.00;;
1701;SDS011;848;48.354;10.064;2024-02-15T13:12:40;2.58;;;1.60;;
1701;SDS011;848;48.354;10.064;2024-02-15T13:15:09;1.50;;;1.35;;
1701;SDS011;848;48.354;10.064;2024-02-15T13:17:43;2.78;;;1.33;;
1701;SDS011;848;48.354;10.064;2024-02-15T13:20:10;1.75;;;1.65;;
1701;SDS011;848;48.354;10.064;2024-02-15T13:22:39;1.90;;;1.17;;
1701;SDS011;848;48.354;10.064;2024-02-15T13:25:06;1.63;;;1.35;;
1701;SDS011;848;48.354;10.064;2024-02-15T13:27:34;2.30;;;1.25;;
1701;SDS011;848;48.354;10.064;2024-02-15T13:30:02;1.77;;;1.15;;
1701;SDS011;848;48.354;10.064;2024-02-15T13:32:33;2.38;;;1.15;;
1701;SDS011;848;48.354;10.064;2024-02-15T13:35:02;1.75;;;1.17;;
1701;SDS011;848;48.354;10.064;2024-02-15T13:37:37;1.35;;;0.93;;
1701;SDS011;848;48.354;10.064;2024-02-15T13:40:08;1.35;;;0.80;;
1701;SDS011;848;48.354;10.064;2024-02-15T13:42:40;4.82;;;1.13;;
1701;SDS011;848;48.354;10.064;2024-02-15T13:45:12;1.63;;;1.20;;
1701;SDS011;848;48.354;10.064;2024-02-15T13:47:39;2.00;;;1.20;;
1701;SDS011;848;48.354;10.064;2024-02-15T13:50:08;1.35;;;1.23;;
1701;SDS011;848;48.354;10.064;2024-02-15T13:52:39;2.28;;;1.35;;
1701;SDS011;848;48.354;10.064;2024-02-15T13:55:09;2.17;;;1.15;;
1701;SDS011;848;48.354;10.064;2024-02-15T13:57:37;4.72;;;1.25;;
1701;SDS011;848;48.354;10.064;2024-02-15T14:00:05;2.15;;;1.10;;
1701;SDS011;848;48.354;10.064;2024-02-15T14:02:38;2.03;;;1.35;;
1701;SDS011;848;48.354;10.064;2024-02-15T14:05:10;1.40;;;1.00;;
1701;SDS011;848;48.354;10.064;2024-02-15T14:07:37;1.27;;;1.02;;
1701;SDS011;848;48.354;10.064;2024-02-15T14:10:05;4.22;;;1.83;;
1701;SDS011;848;48.354;10.064;2024-02-15T14:12:33;1.90;;;1.50;;
1701;SDS011;848;48.354;10.064;2024-02-15T14:15:00;2.42;;;1.48;;
1701;SDS011;848;48.354;10.064;2024-02-15T14:17:27;2.60;;;1.33;;
1701;SDS011;848;48.354;10.064;2024-02-15T14:19:54;4.13;;;1.20;;
1701;SDS011;848;48.354;10.064;2024-02-15T14:22:23;1.55;;;1.00;;
1701;SDS011;848;48.354;10.064;2024-02-15T14:24:54;1.67;;;0.95;;
1701;SDS011;848;48.354;10.064;2024-02-15T14:27:21;1.70;;;1.30;;
1701;SDS011;848;48.354;10.064;2024-02-15T14:29:48;2.28;;;1.20;;
1701;SDS011;848;48.354;10.064;2024-02-15T14:32:29;2.03;;;1.30;;
1701;SDS011;848;48.354;10.064;2024-02-15T14:35:24;1.90;;;1.40;;
1701;SDS011;848;48.354;10.064;2024-02-15T14:37:53;1.60;;;1.50;;
1701;SDS011;848;48.354;10.064;2024-02-15T14:40:21;3.17;;;1.45;;
1701;SDS011;848;48.354;10.064;2024-02-15T14:42:48;1.38;;;1.23;;
1701;SDS011;848;48.354;10.064;2024-02-15T14:45:14;1.88;;;1.30;;
1701;SDS011;848;48.354;10.064;2024-02-15T14:47:41;2.75;;;1.60;;
1701;SDS011;848;48.354;10.064;2024-02-15T14:50:09;2.15;;;1.70;;
1701;SDS011;848;48.354;10.064;2024-02-15T14:52:38;2.17;;;1.45;;
1701;SDS011;848;48.354;10.064;2024-02-15T14:55:07;1.67;;;1.42;;
1701;SDS011;848;48.354;10.064;2024-02-15T14:57:34;4.07;;;1.60;;
1701;SDS011;848;48.354;10.064;2024-02-15T15:00:03;1.92;;;1.25;;
1701;SDS011;848;48.354;10.064;2024-02-15T15:02:30;2.10;;;1.23;;
1701;SDS011;848;48.354;10.064;2024-02-15T15:04:57;2.35;;;1.40;;
1701;SDS011;848;48.354;10.064;2024-02-15T15:07:45;1.95;;;1.40;;
1701;SDS011;848;48.354;10.064;2024-02-15T15:10:31;2.35;;;1.40;;
1701;SDS011;848;48.354;10.064;2024-02-15T15:13:15;2.50;;;1.88;;
1701;SDS011;848;48.354;10.064;2024-02-15T15:15:44;3.47;;;1.80;;
1701;SDS011;848;48.354;10.064;2024-02-15T15:18:12;5.80;;;2.30;;
1701;SDS011;848;48.354;10.064;2024-02-15T15:20:38;1.50;;;1.38;;
1701;SDS011;848;48.354;10.064;2024-02-15T15:23:05;3.67;;;1.65;;
1701;SDS011;848;48.354;10.064;2024-02-15T15:25:34;3.67;;;1.65;;
1701;SDS011;848;48.354;10.064;2024-02-15T15:28:02;1.50;;;1.13;;
1701;SDS011;848;48.354;10.064;2024-02-15T15:30:29;2.13;;;1.15;;